WTD weather

West End Airport
West End, Freeport, Bahamas

Public forecast

Using degrees Celsius for public forecast. Weather courtesy of forecast.io.

METAR (pilot weather report)

Closest report is Grand Bahama International Airport, 16.8 nm (31.1 km) ESE. Retrieved 2019/09/17 20:00 UTC (31 minutes ago):

MYGF 172000Z 36007KT 9999 SCT020TCU ///// A2988

TAF (pilot weather forecast)

Closest forecast is Grand Bahama International Airport, 16.8 nm (31.1 km) ESE. Retrieved 2019/09/17 18:39 UTC (2 hours ago):

TAF TAF MYGF 171620Z 1718/1818 36010KT 9999 SHRA SCT025 SCT040 FM180100 01008KT 9999 SCT020